Time;durP1;ratioP1;P1;durP2;ratioP2;P2;SDS_P1;SDS_P2;PMS_P1;PMS_P2;Temp;Humidity;BMP_temperature;BMP_pressure;BME280_temperature;BME280_humidity;BME280_pressure;Samples;Min_cycle;Max_cycle;Signal;HPM_P1;HPM_P2
2024/04/23 00:00:19;;;;;;;5.6;5;;;;;;;;;;;;;
2024/04/23 00:02:45;;;;;;;5.4;4.7;;;;;;;;;;;;;
2024/04/23 00:05:09;;;;;;;4.5;4.1;;;;;;;;;;;;;
2024/04/23 00:07:34;;;;;;;5;4.5;;;;;;;;;;;;;
2024/04/23 00:09:59;;;;;;;4.5;3.9;;;;;;;;;;;;;
2024/04/23 00:12:25;;;;;;;4.8;4.3;;;;;;;;;;;;;
2024/04/23 00:14:50;;;;;;;4.3;3.9;;;;;;;;;;;;;
2024/04/23 00:17:16;;;;;;;4.2;3.8;;;;;;;;;;;;;
2024/04/23 00:19:40;;;;;;;3.7;3.4;;;;;;;;;;;;;
2024/04/23 00:22:05;;;;;;;4.3;3.9;;;;;;;;;;;;;
2024/04/23 00:24:31;;;;;;;4.1;3.7;;;;;;;;;;;;;
2024/04/23 00:26:56;;;;;;;4.6;4;;;;;;;;;;;;;
2024/04/23 00:29:21;;;;;;;4.2;3.8;;;;;;;;;;;;;
2024/04/23 00:31:46;;;;;;;3.7;3.4;;;;;;;;;;;;;
2024/04/23 00:34:11;;;;;;;3.9;3.5;;;;;;;;;;;;;
2024/04/23 00:36:36;;;;;;;3.8;3.5;;;;;;;;;;;;;
2024/04/23 00:39:01;;;;;;;3.5;3.2;;;;;;;;;;;;;
2024/04/23 00:41:26;;;;;;;3.8;3.4;;;;;;;;;;;;;
2024/04/23 00:43:53;;;;;;;4;3.6;;;;;;;;;;;;;
2024/04/23 00:46:17;;;;;;;4.3;3.9;;;;;;;;;;;;;
2024/04/23 00:48:42;;;;;;;4.5;3.9;;;;;;;;;;;;;
2024/04/23 00:51:07;;;;;;;4.4;4;;;;;;;;;;;;;
2024/04/23 00:53:32;;;;;;;5.1;4.2;;;;;;;;;;;;;
2024/04/23 00:55:58;;;;;;;4.8;4;;;;;;;;;;;;;
2024/04/23 00:58:22;;;;;;;4.4;3.9;;;;;;;;;;;;;
2024/04/23 01:00:47;;;;;;;4.4;4;;;;;;;;;;;;;
2024/04/23 01:03:12;;;;;;;4.4;4;;;;;;;;;;;;;
2024/04/23 01:05:37;;;;;;;4.4;4;;;;;;;;;;;;;
2024/04/23 01:08:03;;;;;;;4.2;3.8;;;;;;;;;;;;;
2024/04/23 01:10:28;;;;;;;4.5;4;;;;;;;;;;;;;
2024/04/23 01:12:53;;;;;;;4.3;3.9;;;;;;;;;;;;;
2024/04/23 01:15:18;;;;;;;4.8;4.3;;;;;;;;;;;;;
2024/04/23 01:17:43;;;;;;;4.8;4.3;;;;;;;;;;;;;
2024/04/23 01:20:08;;;;;;;4.9;4.4;;;;;;;;;;;;;
2024/04/23 01:22:33;;;;;;;5;4.5;;;;;;;;;;;;;
2024/04/23 01:24:58;;;;;;;5.1;4.4;;;;;;;;;;;;;
2024/04/23 01:27:23;;;;;;;5;4.5;;;;;;;;;;;;;
2024/04/23 01:29:49;;;;;;;4.9;4.4;;;;;;;;;;;;;
2024/04/23 01:32:14;;;;;;;5.3;4.8;;;;;;;;;;;;;
2024/04/23 01:34:39;;;;;;;5.3;4.8;;;;;;;;;;;;;
2024/04/23 01:37:04;;;;;;;6.2;5.3;;;;;;;;;;;;;
2024/04/23 01:39:29;;;;;;;5.7;5.1;;;;;;;;;;;;;
2024/04/23 01:41:54;;;;;;;5.5;5;;;;;;;;;;;;;
2024/04/23 01:44:20;;;;;;;4.9;4.4;;;;;;;;;;;;;
2024/04/23 01:46:44;;;;;;;5.4;4.9;;;;;;;;;;;;;
2024/04/23 01:49:10;;;;;;;5.4;4.9;;;;;;;;;;;;;
2024/04/23 01:51:35;;;;;;;5.6;5;;;;;;;;;;;;;
2024/04/23 01:54:00;;;;;;;5.9;5.3;;;;;;;;;;;;;
2024/04/23 01:56:25;;;;;;;6;5.4;;;;;;;;;;;;;
2024/04/23 01:58:51;;;;;;;6.3;5.7;;;;;;;;;;;;;
2024/04/23 02:01:15;;;;;;;6;5.3;;;;;;;;;;;;;
2024/04/23 02:03:41;;;;;;;6.6;5.5;;;;;;;;;;;;;
2024/04/23 02:06:05;;;;;;;6.5;5.8;;;;;;;;;;;;;
2024/04/23 02:08:30;;;;;;;6.7;5.6;;;;;;;;;;;;;
2024/04/23 02:10:55;;;;;;;6.4;5.7;;;;;;;;;;;;;
2024/04/23 02:13:21;;;;;;;6.8;6.1;;;;;;;;;;;;;
2024/04/23 02:15:46;;;;;;;6.8;5.9;;;;;;;;;;;;;
2024/04/23 02:18:11;;;;;;;7.9;6;;;;;;;;;;;;;
2024/04/23 02:20:36;;;;;;;6.9;6.2;;;;;;;;;;;;;
2024/04/23 02:23:01;;;;;;;7.7;6.3;;;;;;;;;;;;;
2024/04/23 02:25:26;;;;;;;7.5;6.2;;;;;;;;;;;;;
2024/04/23 02:27:51;;;;;;;8.4;6.6;;;;;;;;;;;;;
2024/04/23 02:30:17;;;;;;;7.6;6.5;;;;;;;;;;;;;
2024/04/23 02:32:42;;;;;;;8;5.8;;;;;;;;;;;;;
2024/04/23 02:35:07;;;;;;;7.1;6;;;;;;;;;;;;;
2024/04/23 02:37:32;;;;;;;7.7;6.1;;;;;;;;;;;;;
2024/04/23 02:39:57;;;;;;;7.8;6;;;;;;;;;;;;;
2024/04/23 02:42:22;;;;;;;6.8;6.1;;;;;;;;;;;;;
2024/04/23 02:44:48;;;;;;;6.8;5.9;;;;;;;;;;;;;
2024/04/23 02:47:13;;;;;;;7;6;;;;;;;;;;;;;
2024/04/23 02:49:38;;;;;;;6.7;5.6;;;;;;;;;;;;;
2024/04/23 02:52:03;;;;;;;6.9;5.6;;;;;;;;;;;;;
2024/04/23 02:54:28;;;;;;;6.4;5.6;;;;;;;;;;;;;
2024/04/23 02:56:53;;;;;;;7.4;6.1;;;;;;;;;;;;;
2024/04/23 02:59:18;;;;;;;6.5;5.8;;;;;;;;;;;;;
2024/04/23 03:01:43;;;;;;;6.5;5.8;;;;;;;;;;;;;
2024/04/23 03:04:08;;;;;;;6.8;5.6;;;;;;;;;;;;;
2024/04/23 03:06:34;;;;;;;8.3;6;;;;;;;;;;;;;
2024/04/23 03:08:59;;;;;;;6.8;5.6;;;;;;;;;;;;;
2024/04/23 03:11:24;;;;;;;7;5.7;;;;;;;;;;;;;
2024/04/23 03:13:49;;;;;;;6.6;5.7;;;;;;;;;;;;;
2024/04/23 03:16:16;;;;;;;7.3;6.3;;;;;;;;;;;;;
2024/04/23 03:18:41;;;;;;;7.1;5.7;;;;;;;;;;;;;
2024/04/23 03:21:06;;;;;;;6.9;5.8;;;;;;;;;;;;;
2024/04/23 03:23:31;;;;;;;6.1;5.4;;;;;;;;;;;;;
2024/04/23 03:25:56;;;;;;;6.2;5.6;;;;;;;;;;;;;
2024/04/23 03:28:21;;;;;;;6.5;5.4;;;;;;;;;;;;;
2024/04/23 03:30:46;;;;;;;6.9;5.8;;;;;;;;;;;;;
2024/04/23 03:33:11;;;;;;;6.6;5.5;;;;;;;;;;;;;
2024/04/23 03:35:36;;;;;;;6.7;6;;;;;;;;;;;;;
2024/04/23 03:38:02;;;;;;;6.8;5.9;;;;;;;;;;;;;
2024/04/23 03:40:27;;;;;;;6.1;5.4;;;;;;;;;;;;;
2024/04/23 03:42:52;;;;;;;7.7;6.4;;;;;;;;;;;;;
2024/04/23 03:45:17;;;;;;;8.7;6.8;;;;;;;;;;;;;
2024/04/23 03:47:42;;;;;;;10;7;;;;;;;;;;;;;
2024/04/23 03:50:07;;;;;;;10.9;7.7;;;;;;;;;;;;;
2024/04/23 03:52:32;;;;;;;9.9;7.8;;;;;;;;;;;;;
2024/04/23 03:54:57;;;;;;;10;7.6;;;;;;;;;;;;;
2024/04/23 03:57:23;;;;;;;8.8;7;;;;;;;;;;;;;
2024/04/23 03:59:48;;;;;;;7.4;6.2;;;;;;;;;;;;;
2024/04/23 04:06:24;;;;;;;9.8;7.7;;;;;;;;;;;;;
2024/04/23 04:08:50;;;;;;;9.1;7.8;;;;;;;;;;;;;
2024/04/23 04:11:15;;;;;;;8.6;7.2;;;;;;;;;;;;;
2024/04/23 04:13:41;;;;;;;7.7;6.6;;;;;;;;;;;;;
2024/04/23 04:16:05;;;;;;;7.6;6.5;;;;;;;;;;;;;
2024/04/23 04:18:30;;;;;;;8;6.7;;;;;;;;;;;;;
2024/04/23 04:20:55;;;;;;;8.1;6.9;;;;;;;;;;;;;
2024/04/23 04:23:20;;;;;;;7.7;6.3;;;;;;;;;;;;;
2024/04/23 04:25:45;;;;;;;6.8;6;;;;;;;;;;;;;
2024/04/23 04:28:11;;;;;;;7.1;6.4;;;;;;;;;;;;;
2024/04/23 04:30:36;;;;;;;7.8;6.4;;;;;;;;;;;;;
2024/04/23 04:33:01;;;;;;;6.9;5.9;;;;;;;;;;;;;
2024/04/23 04:35:26;;;;;;;6.4;5.7;;;;;;;;;;;;;
2024/04/23 04:37:51;;;;;;;6.3;5.6;;;;;;;;;;;;;
2024/04/23 04:40:17;;;;;;;6.6;5.5;;;;;;;;;;;;;
2024/04/23 04:42:42;;;;;;;6.3;5.2;;;;;;;;;;;;;
2024/04/23 04:45:07;;;;;;;6.6;5.9;;;;;;;;;;;;;
2024/04/23 04:47:33;;;;;;;6.3;5.4;;;;;;;;;;;;;
2024/04/23 04:49:57;;;;;;;6.8;5.8;;;;;;;;;;;;;
2024/04/23 04:52:22;;;;;;;6.8;5.9;;;;;;;;;;;;;
2024/04/23 04:54:47;;;;;;;7.8;6.3;;;;;;;;;;;;;
2024/04/23 04:57:12;;;;;;;8.1;6.3;;;;;;;;;;;;;
2024/04/23 04:59:37;;;;;;;7.6;6.5;;;;;;;;;;;;;
2024/04/23 05:02:03;;;;;;;8.4;6.9;;;;;;;;;;;;;
2024/04/23 05:04:28;;;;;;;9.4;7.9;;;;;;;;;;;;;
2024/04/23 05:06:53;;;;;;;9.1;7.4;;;;;;;;;;;;;
2024/04/23 05:09:18;;;;;;;8.8;7.2;;;;;;;;;;;;;
2024/04/23 05:11:43;;;;;;;9.7;8.2;;;;;;;;;;;;;
2024/04/23 05:14:09;;;;;;;10.4;8.1;;;;;;;;;;;;;
2024/04/23 05:16:35;;;;;;;11.1;8.9;;;;;;;;;;;;;
2024/04/23 05:18:59;;;;;;;10.3;8.3;;;;;;;;;;;;;
2024/04/23 05:21:24;;;;;;;11.5;9.2;;;;;;;;;;;;;
2024/04/23 05:23:49;;;;;;;12.3;9.1;;;;;;;;;;;;;
2024/04/23 05:26:14;;;;;;;11.4;8.9;;;;;;;;;;;;;
2024/04/23 05:28:39;;;;;;;11.5;8.8;;;;;;;;;;;;;
2024/04/23 05:33:30;;;;;;;11;9.2;;;;;;;;;;;;;
2024/04/23 05:35:55;;;;;;;12.7;9.8;;;;;;;;;;;;;
2024/04/23 05:38:20;;;;;;;13;9.4;;;;;;;;;;;;;
2024/04/23 05:40:45;;;;;;;12.6;10;;;;;;;;;;;;;
2024/04/23 05:43:10;;;;;;;13.8;9.8;;;;;;;;;;;;;
2024/04/23 05:45:35;;;;;;;12.8;10;;;;;;;;;;;;;
2024/04/23 05:48:01;;;;;;;12.5;10.3;;;;;;;;;;;;;
2024/04/23 05:50:26;;;;;;;11.9;9.5;;;;;;;;;;;;;
2024/04/23 05:52:50;;;;;;;11.6;10;;;;;;;;;;;;;
2024/04/23 05:55:15;;;;;;;13.4;10.2;;;;;;;;;;;;;
2024/04/23 05:57:41;;;;;;;13.1;10.4;;;;;;;;;;;;;
2024/04/23 06:00:06;;;;;;;14.4;10.7;;;;;;;;;;;;;
2024/04/23 06:02:31;;;;;;;15.8;11.4;;;;;;;;;;;;;
2024/04/23 06:04:56;;;;;;;13.2;10.8;;;;;;;;;;;;;
2024/04/23 06:07:21;;;;;;;12.9;10.4;;;;;;;;;;;;;
2024/04/23 06:09:46;;;;;;;12.6;10.2;;;;;;;;;;;;;
2024/04/23 06:12:12;;;;;;;12.6;9.8;;;;;;;;;;;;;
2024/04/23 06:14:42;;;;;;;11.6;9.3;;;;;;;;;;;;;
2024/04/23 06:17:01;;;;;;;10.3;8.7;;;;;;;;;;;;;
2024/04/23 06:19:28;;;;;;;11.8;8.4;;;;;;;;;;;;;
2024/04/23 06:21:51;;;;;;;11.2;8.8;;;;;;;;;;;;;
2024/04/23 06:24:16;;;;;;;10.3;8.4;;;;;;;;;;;;;
2024/04/23 06:26:42;;;;;;;10.1;8.8;;;;;;;;;;;;;
2024/04/23 06:29:07;;;;;;;10.5;9.1;;;;;;;;;;;;;
2024/04/23 06:31:35;;;;;;;10.9;8.5;;;;;;;;;;;;;
2024/04/23 06:33:57;;;;;;;11.8;8.9;;;;;;;;;;;;;
2024/04/23 06:36:22;;;;;;;11.4;8.9;;;;;;;;;;;;;
2024/04/23 06:38:48;;;;;;;11.8;9.3;;;;;;;;;;;;;
2024/04/23 06:41:13;;;;;;;11.3;8.9;;;;;;;;;;;;;
2024/04/23 06:43:38;;;;;;;10.7;8.7;;;;;;;;;;;;;
2024/04/23 06:46:03;;;;;;;10.5;8;;;;;;;;;;;;;
2024/04/23 06:48:28;;;;;;;10.3;8.1;;;;;;;;;;;;;
2024/04/23 06:50:53;;;;;;;8.5;7.4;;;;;;;;;;;;;
2024/04/23 06:53:18;;;;;;;9.7;7.8;;;;;;;;;;;;;
2024/04/23 06:55:43;;;;;;;9.9;7.9;;;;;;;;;;;;;
2024/04/23 06:58:08;;;;;;;10.5;8.3;;;;;;;;;;;;;
2024/04/23 07:00:34;;;;;;;10.4;8;;;;;;;;;;;;;
2024/04/23 07:02:59;;;;;;;8.9;7.9;;;;;;;;;;;;;
2024/04/23 07:05:24;;;;;;;9.5;8.1;;;;;;;;;;;;;
2024/04/23 07:07:51;;;;;;;8.9;7.3;;;;;;;;;;;;;
2024/04/23 07:10:14;;;;;;;9.3;7.6;;;;;;;;;;;;;
2024/04/23 07:12:39;;;;;;;9.1;7.4;;;;;;;;;;;;;
2024/04/23 07:15:04;;;;;;;8.9;7.8;;;;;;;;;;;;;
2024/04/23 07:17:30;;;;;;;9.2;7.5;;;;;;;;;;;;;
2024/04/23 07:19:55;;;;;;;7.9;6.8;;;;;;;;;;;;;
2024/04/23 07:22:20;;;;;;;9.8;7.4;;;;;;;;;;;;;
2024/04/23 07:24:45;;;;;;;9;7.5;;;;;;;;;;;;;
2024/04/23 07:27:10;;;;;;;8.8;7;;;;;;;;;;;;;
2024/04/23 07:29:35;;;;;;;8.5;7;;;;;;;;;;;;;
2024/04/23 07:32:00;;;;;;;7.7;6.7;;;;;;;;;;;;;
2024/04/23 07:34:25;;;;;;;8.7;6.9;;;;;;;;;;;;;
2024/04/23 07:36:51;;;;;;;7.6;6.7;;;;;;;;;;;;;
2024/04/23 07:39:16;;;;;;;8.3;7.4;;;;;;;;;;;;;
2024/04/23 07:41:41;;;;;;;9.2;6.6;;;;;;;;;;;;;
2024/04/23 07:44:06;;;;;;;8.1;6.4;;;;;;;;;;;;;
2024/04/23 07:46:36;;;;;;;9.5;7.1;;;;;;;;;;;;;
2024/04/23 07:49:22;;;;;;;12.1;8.2;;;;;;;;;;;;;
2024/04/23 07:51:47;;;;;;;10.6;8.2;;;;;;;;;;;;;
2024/04/23 07:54:12;;;;;;;7.7;6.4;;;;;;;;;;;;;
2024/04/23 07:56:38;;;;;;;6.9;6.1;;;;;;;;;;;;;
2024/04/23 07:59:02;;;;;;;6.8;5.7;;;;;;;;;;;;;
2024/04/23 08:01:27;;;;;;;7.2;5.5;;;;;;;;;;;;;
2024/04/23 08:03:52;;;;;;;6.1;5.2;;;;;;;;;;;;;
2024/04/23 08:06:18;;;;;;;6.4;5.4;;;;;;;;;;;;;
2024/04/23 08:08:43;;;;;;;5.7;5.1;;;;;;;;;;;;;
2024/04/23 08:11:08;;;;;;;5.7;5;;;;;;;;;;;;;
2024/04/23 08:13:33;;;;;;;5.7;5;;;;;;;;;;;;;
2024/04/23 08:15:58;;;;;;;5.8;4.9;;;;;;;;;;;;;
2024/04/23 08:18:23;;;;;;;6;4.7;;;;;;;;;;;;;
2024/04/23 08:20:48;;;;;;;5;4.5;;;;;;;;;;;;;
2024/04/23 08:23:14;;;;;;;4.7;4.3;;;;;;;;;;;;;
2024/04/23 08:25:38;;;;;;;6.6;4.9;;;;;;;;;;;;;
2024/04/23 08:28:03;;;;;;;4.5;4.1;;;;;;;;;;;;;
2024/04/23 08:30:29;;;;;;;4.5;4.1;;;;;;;;;;;;;
2024/04/23 08:32:53;;;;;;;4.4;3.9;;;;;;;;;;;;;
2024/04/23 08:35:19;;;;;;;5.1;4.5;;;;;;;;;;;;;
2024/04/23 08:37:44;;;;;;;4.2;3.8;;;;;;;;;;;;;
2024/04/23 08:40:09;;;;;;;4.5;4.1;;;;;;;;;;;;;
2024/04/23 08:42:34;;;;;;;5.2;4.7;;;;;;;;;;;;;
2024/04/23 08:44:59;;;;;;;4.7;4.3;;;;;;;;;;;;;
2024/04/23 08:47:25;;;;;;;5.2;4.7;;;;;;;;;;;;;
2024/04/23 08:49:50;;;;;;;4.5;4.1;;;;;;;;;;;;;
2024/04/23 08:52:15;;;;;;;5.1;4.6;;;;;;;;;;;;;
2024/04/23 08:54:40;;;;;;;5.7;4.5;;;;;;;;;;;;;
2024/04/23 08:57:05;;;;;;;5.8;4.7;;;;;;;;;;;;;
2024/04/23 08:59:31;;;;;;;5.3;4.4;;;;;;;;;;;;;
2024/04/23 09:01:55;;;;;;;5.2;4.6;;;;;;;;;;;;;
2024/04/23 09:04:21;;;;;;;5.5;4.8;;;;;;;;;;;;;
2024/04/23 09:06:46;;;;;;;5;4.5;;;;;;;;;;;;;
2024/04/23 09:09:15;;;;;;;5.1;4.3;;;;;;;;;;;;;
2024/04/23 09:11:36;;;;;;;4.5;4.1;;;;;;;;;;;;;
2024/04/23 09:14:01;;;;;;;4.4;4;;;;;;;;;;;;;
2024/04/23 09:16:27;;;;;;;4.1;3.7;;;;;;;;;;;;;
2024/04/23 09:18:53;;;;;;;4.4;4;;;;;;;;;;;;;
2024/04/23 09:21:16;;;;;;;5.5;4;;;;;;;;;;;;;
2024/04/23 09:23:41;;;;;;;5.3;4.3;;;;;;;;;;;;;
2024/04/23 09:26:07;;;;;;;4.6;4.1;;;;;;;;;;;;;
2024/04/23 09:28:32;;;;;;;4.6;4.2;;;;;;;;;;;;;
2024/04/23 09:30:57;;;;;;;4.7;4.3;;;;;;;;;;;;;
2024/04/23 09:33:22;;;;;;;5.1;4.6;;;;;;;;;;;;;
2024/04/23 09:35:47;;;;;;;5.1;4.5;;;;;;;;;;;;;
2024/04/23 09:38:12;;;;;;;5;4.5;;;;;;;;;;;;;
2024/04/23 09:40:37;;;;;;;4.9;4.4;;;;;;;;;;;;;
2024/04/23 09:43:02;;;;;;;5.6;4.7;;;;;;;;;;;;;
2024/04/23 09:45:27;;;;;;;4.7;4.3;;;;;;;;;;;;;
2024/04/23 09:47:52;;;;;;;5.4;4.7;;;;;;;;;;;;;
2024/04/23 09:50:17;;;;;;;5.2;4.7;;;;;;;;;;;;;
2024/04/23 09:52:42;;;;;;;5.2;4.3;;;;;;;;;;;;;
2024/04/23 09:55:08;;;;;;;5.4;4.9;;;;;;;;;;;;;
2024/04/23 09:57:34;;;;;;;5.3;4.6;;;;;;;;;;;;;
2024/04/23 09:59:57;;;;;;;5.1;4.6;;;;;;;;;;;;;
2024/04/23 10:02:23;;;;;;;4.8;4.4;;;;;;;;;;;;;
2024/04/23 10:04:48;;;;;;;4.8;4.3;;;;;;;;;;;;;
2024/04/23 10:07:13;;;;;;;5.3;4.7;;;;;;;;;;;;;
2024/04/23 10:09:38;;;;;;;4.9;4.4;;;;;;;;;;;;;
2024/04/23 10:12:05;;;;;;;5.8;4.8;;;;;;;;;;;;;
2024/04/23 10:14:28;;;;;;;5.2;4.6;;;;;;;;;;;;;
2024/04/23 10:16:54;;;;;;;4.3;3.9;;;;;;;;;;;;;
2024/04/23 10:19:19;;;;;;;4.8;4.2;;;;;;;;;;;;;
2024/04/23 10:21:44;;;;;;;4.7;4.2;;;;;;;;;;;;;
2024/04/23 10:24:09;;;;;;;4.6;4.1;;;;;;;;;;;;;
2024/04/23 10:26:36;;;;;;;4.4;4;;;;;;;;;;;;;
2024/04/23 10:28:59;;;;;;;5;4.5;;;;;;;;;;;;;
2024/04/23 10:31:24;;;;;;;4.6;4.2;;;;;;;;;;;;;
2024/04/23 10:33:50;;;;;;;4.6;4.2;;;;;;;;;;;;;
2024/04/23 10:36:14;;;;;;;6.8;5.7;;;;;;;;;;;;;
2024/04/23 10:38:40;;;;;;;4.5;4.1;;;;;;;;;;;;;
2024/04/23 10:41:05;;;;;;;4.8;4.3;;;;;;;;;;;;;
2024/04/23 10:43:30;;;;;;;4.4;4;;;;;;;;;;;;;
2024/04/23 10:45:55;;;;;;;5;4.5;;;;;;;;;;;;;
2024/04/23 10:48:20;;;;;;;5.3;4.5;;;;;;;;;;;;;
2024/04/23 10:50:45;;;;;;;4.5;4.1;;;;;;;;;;;;;
2024/04/23 10:53:10;;;;;;;4.8;4.3;;;;;;;;;;;;;
2024/04/23 10:55:35;;;;;;;5.1;4.6;;;;;;;;;;;;;
2024/04/23 10:58:01;;;;;;;4.7;4.3;;;;;;;;;;;;;
2024/04/23 11:00:26;;;;;;;5.3;4.8;;;;;;;;;;;;;
2024/04/23 11:02:51;;;;;;;5.7;4.9;;;;;;;;;;;;;
2024/04/23 11:05:16;;;;;;;5.3;4.8;;;;;;;;;;;;;
2024/04/23 11:07:41;;;;;;;5.5;4.9;;;;;;;;;;;;;
2024/04/23 11:10:06;;;;;;;5.3;4.8;;;;;;;;;;;;;
2024/04/23 11:12:31;;;;;;;5.8;5.2;;;;;;;;;;;;;
2024/04/23 11:14:56;;;;;;;5.7;4.9;;;;;;;;;;;;;
2024/04/23 11:17:21;;;;;;;5.3;4.8;;;;;;;;;;;;;
2024/04/23 11:19:48;;;;;;;5;4.5;;;;;;;;;;;;;
2024/04/23 11:22:13;;;;;;;5.6;5;;;;;;;;;;;;;
2024/04/23 11:24:36;;;;;;;5.3;4.8;;;;;;;;;;;;;
2024/04/23 11:27:02;;;;;;;5.4;4.9;;;;;;;;;;;;;
2024/04/23 11:29:27;;;;;;;5.7;5.1;;;;;;;;;;;;;
2024/04/23 11:31:52;;;;;;;6;5.4;;;;;;;;;;;;;
2024/04/23 11:34:17;;;;;;;6.1;5.5;;;;;;;;;;;;;
2024/04/23 11:36:42;;;;;;;5.7;5.2;;;;;;;;;;;;;
2024/04/23 11:39:08;;;;;;;6.2;5.5;;;;;;;;;;;;;
2024/04/23 11:41:32;;;;;;;6.2;5.6;;;;;;;;;;;;;
2024/04/23 11:44:01;;;;;;;6.2;5.6;;;;;;;;;;;;;
2024/04/23 11:46:22;;;;;;;6.5;5.8;;;;;;;;;;;;;
2024/04/23 11:48:48;;;;;;;6.4;5.8;;;;;;;;;;;;;
2024/04/23 11:51:12;;;;;;;5.4;4.9;;;;;;;;;;;;;
2024/04/23 11:53:38;;;;;;;7.8;5.5;;;;;;;;;;;;;
2024/04/23 11:56:03;;;;;;;6.4;5.7;;;;;;;;;;;;;
2024/04/23 11:58:28;;;;;;;6.3;5.7;;;;;;;;;;;;;
2024/04/23 12:00:53;;;;;;;6.7;5.6;;;;;;;;;;;;;
2024/04/23 12:03:18;;;;;;;6.2;5.3;;;;;;;;;;;;;
2024/04/23 12:05:43;;;;;;;5.6;5.1;;;;;;;;;;;;;
2024/04/23 12:08:09;;;;;;;6.2;5.6;;;;;;;;;;;;;
2024/04/23 12:10:34;;;;;;;6.7;5.5;;;;;;;;;;;;;
2024/04/23 12:12:59;;;;;;;7.6;6.2;;;;;;;;;;;;;
2024/04/23 12:15:24;;;;;;;5.9;5.3;;;;;;;;;;;;;
2024/04/23 12:17:49;;;;;;;6.4;5.8;;;;;;;;;;;;;
2024/04/23 12:20:14;;;;;;;6;5.4;;;;;;;;;;;;;
2024/04/23 12:22:44;;;;;;;6.3;5.7;;;;;;;;;;;;;
2024/04/23 12:25:05;;;;;;;5.5;5;;;;;;;;;;;;;
2024/04/23 12:27:31;;;;;;;6.5;5.8;;;;;;;;;;;;;
2024/04/23 12:29:55;;;;;;;7.1;6;;;;;;;;;;;;;
2024/04/23 12:32:20;;;;;;;6;5.4;;;;;;;;;;;;;
2024/04/23 12:34:45;;;;;;;6.4;5.6;;;;;;;;;;;;;
2024/04/23 12:37:10;;;;;;;6;5.4;;;;;;;;;;;;;
2024/04/23 12:39:35;;;;;;;6.3;5.7;;;;;;;;;;;;;
2024/04/23 12:42:00;;;;;;;6.2;5.6;;;;;;;;;;;;;
2024/04/23 12:44:25;;;;;;;7.2;5.9;;;;;;;;;;;;;
2024/04/23 12:46:51;;;;;;;7.2;6.5;;;;;;;;;;;;;
2024/04/23 12:49:15;;;;;;;7.1;6.3;;;;;;;;;;;;;
2024/04/23 12:51:41;;;;;;;6.6;6;;;;;;;;;;;;;
2024/04/23 12:54:08;;;;;;;7.4;6.5;;;;;;;;;;;;;
2024/04/23 12:56:31;;;;;;;6.9;6.2;;;;;;;;;;;;;
2024/04/23 12:58:56;;;;;;;7.2;6.5;;;;;;;;;;;;;
2024/04/23 13:01:21;;;;;;;7.5;6.8;;;;;;;;;;;;;
2024/04/23 13:03:49;;;;;;;8.6;7.1;;;;;;;;;;;;;
2024/04/23 13:06:12;;;;;;;6.8;6.1;;;;;;;;;;;;;
2024/04/23 13:08:37;;;;;;;7.8;6.9;;;;;;;;;;;;;
2024/04/23 13:11:02;;;;;;;8.6;7.5;;;;;;;;;;;;;
2024/04/23 13:13:27;;;;;;;8.5;7.6;;;;;;;;;;;;;
2024/04/23 13:15:52;;;;;;;8.9;8;;;;;;;;;;;;;
2024/04/23 13:18:18;;;;;;;9.1;7.4;;;;;;;;;;;;;
2024/04/23 13:20:43;;;;;;;8;7.2;;;;;;;;;;;;;
2024/04/23 13:23:08;;;;;;;8;6.9;;;;;;;;;;;;;
2024/04/23 13:25:34;;;;;;;9.5;7.5;;;;;;;;;;;;;
2024/04/23 13:27:58;;;;;;;10.2;8.2;;;;;;;;;;;;;
2024/04/23 13:30:23;;;;;;;9.3;8;;;;;;;;;;;;;
2024/04/23 13:32:48;;;;;;;10;8.8;;;;;;;;;;;;;
2024/04/23 13:35:14;;;;;;;9.6;8.3;;;;;;;;;;;;;
2024/04/23 13:37:38;;;;;;;11.8;8.9;;;;;;;;;;;;;
2024/04/23 13:40:06;;;;;;;9.2;8.3;;;;;;;;;;;;;
2024/04/23 13:42:28;;;;;;;12.2;9.5;;;;;;;;;;;;;
2024/04/23 13:44:54;;;;;;;11.6;9.7;;;;;;;;;;;;;
2024/04/23 13:47:19;;;;;;;12.4;9.9;;;;;;;;;;;;;
2024/04/23 13:49:44;;;;;;;10.8;9.4;;;;;;;;;;;;;
2024/04/23 13:52:09;;;;;;;11.4;9.7;;;;;;;;;;;;;
2024/04/23 13:54:34;;;;;;;12.1;10.1;;;;;;;;;;;;;
2024/04/23 13:56:59;;;;;;;14.6;10.4;;;;;;;;;;;;;
2024/04/23 13:59:25;;;;;;;12.6;10.1;;;;;;;;;;;;;
2024/04/23 14:01:50;;;;;;;12.6;9.9;;;;;;;;;;;;;
2024/04/23 14:04:15;;;;;;;12.1;9.9;;;;;;;;;;;;;
2024/04/23 14:06:40;;;;;;;12.5;10.5;;;;;;;;;;;;;
2024/04/23 14:09:05;;;;;;;12.5;10.4;;;;;;;;;;;;;
2024/04/23 14:11:30;;;;;;;13.9;11;;;;;;;;;;;;;
2024/04/23 14:13:55;;;;;;;15;11.7;;;;;;;;;;;;;
2024/04/23 14:16:20;;;;;;;17.4;12.4;;;;;;;;;;;;;
2024/04/23 14:18:45;;;;;;;14.9;12;;;;;;;;;;;;;
2024/04/23 14:21:10;;;;;;;16.7;13.4;;;;;;;;;;;;;
2024/04/23 14:23:37;;;;;;;15.4;12.2;;;;;;;;;;;;;
2024/04/23 14:26:01;;;;;;;15.6;12.5;;;;;;;;;;;;;
2024/04/23 14:28:29;;;;;;;14.7;11.8;;;;;;;;;;;;;
2024/04/23 14:30:51;;;;;;;15.1;11.9;;;;;;;;;;;;;
2024/04/23 14:33:16;;;;;;;15.9;12.3;;;;;;;;;;;;;
2024/04/23 14:35:41;;;;;;;15.8;11.9;;;;;;;;;;;;;
2024/04/23 14:38:06;;;;;;;15.7;11.9;;;;;;;;;;;;;
2024/04/23 14:40:31;;;;;;;14.3;11.4;;;;;;;;;;;;;
2024/04/23 14:42:56;;;;;;;12.8;10.2;;;;;;;;;;;;;
2024/04/23 14:45:44;;;;;;;13.3;10.9;;;;;;;;;;;;;
2024/04/23 14:48:09;;;;;;;13.4;10.6;;;;;;;;;;;;;
2024/04/23 14:50:37;;;;;;;13;11;;;;;;;;;;;;;
2024/04/23 14:53:00;;;;;;;15.3;11.6;;;;;;;;;;;;;
2024/04/23 14:55:25;;;;;;;14.7;11.2;;;;;;;;;;;;;
2024/04/23 14:57:49;;;;;;;14.9;11.5;;;;;;;;;;;;;
2024/04/23 15:00:15;;;;;;;15;11.6;;;;;;;;;;;;;
2024/04/23 15:02:40;;;;;;;16.3;11.7;;;;;;;;;;;;;
2024/04/23 15:05:06;;;;;;;17.4;11.1;;;;;;;;;;;;;
2024/04/23 15:07:31;;;;;;;14.6;10.9;;;;;;;;;;;;;
2024/04/23 15:09:55;;;;;;;14.2;11.2;;;;;;;;;;;;;
2024/04/23 15:12:20;;;;;;;13.6;10.7;;;;;;;;;;;;;
2024/04/23 15:14:48;;;;;;;14.9;11.1;;;;;;;;;;;;;
2024/04/23 15:17:21;;;;;;;14.8;11.3;;;;;;;;;;;;;
2024/04/23 15:19:37;;;;;;;15;11.6;;;;;;;;;;;;;
2024/04/23 15:22:07;;;;;;;14;11;;;;;;;;;;;;;
2024/04/23 15:24:31;;;;;;;13;10.8;;;;;;;;;;;;;
2024/04/23 15:26:58;;;;;;;14.1;10.4;;;;;;;;;;;;;
2024/04/23 15:29:29;;;;;;;12.9;9.8;;;;;;;;;;;;;
2024/04/23 18:12:06;;;;;;;12;8.9;;;;;;;;;;;;;
2024/04/23 18:14:32;;;;;;;7.8;5.5;;;;;;;;;;;;;
2024/04/23 18:16:57;;;;;;;7.6;6.2;;;;;;;;;;;;;
2024/04/23 18:19:22;;;;;;;7.8;5.9;;;;;;;;;;;;;
2024/04/23 18:21:47;;;;;;;7.6;6;;;;;;;;;;;;;
2024/04/23 18:24:12;;;;;;;6.2;5.5;;;;;;;;;;;;;
2024/04/23 18:26:37;;;;;;;7.2;5.9;;;;;;;;;;;;;
2024/04/23 18:29:03;;;;;;;8.2;6.9;;;;;;;;;;;;;
2024/04/23 18:31:28;;;;;;;9.4;7.4;;;;;;;;;;;;;
2024/04/23 18:33:53;;;;;;;8.4;7.3;;;;;;;;;;;;;
2024/04/23 18:36:18;;;;;;;8.8;6.9;;;;;;;;;;;;;
2024/04/23 18:38:43;;;;;;;8.6;7.3;;;;;;;;;;;;;
2024/04/23 18:41:11;;;;;;;9.2;7.6;;;;;;;;;;;;;
2024/04/23 18:43:34;;;;;;;11.3;8.7;;;;;;;;;;;;;
2024/04/23 18:46:00;;;;;;;10.2;7.9;;;;;;;;;;;;;
2024/04/23 18:48:24;;;;;;;11.3;8.7;;;;;;;;;;;;;
2024/04/23 18:50:49;;;;;;;11.3;8.2;;;;;;;;;;;;;
2024/04/23 18:53:15;;;;;;;10.5;8.3;;;;;;;;;;;;;
2024/04/23 18:55:40;;;;;;;10.5;8.4;;;;;;;;;;;;;
2024/04/23 18:58:07;;;;;;;13.2;9.7;;;;;;;;;;;;;
2024/04/23 19:00:30;;;;;;;12.3;10.1;;;;;;;;;;;;;
2024/04/23 19:02:55;;;;;;;14.7;11.5;;;;;;;;;;;;;
2024/04/23 19:05:20;;;;;;;26.9;19;;;;;;;;;;;;;
2024/04/23 19:07:45;;;;;;;20;13.3;;;;;;;;;;;;;
2024/04/23 19:10:11;;;;;;;14.5;11;;;;;;;;;;;;;
2024/04/23 19:12:36;;;;;;;13.8;10.1;;;;;;;;;;;;;
2024/04/23 19:15:01;;;;;;;10.7;7.9;;;;;;;;;;;;;
2024/04/23 19:17:26;;;;;;;11.1;8;;;;;;;;;;;;;
2024/04/23 19:19:51;;;;;;;11.2;8.7;;;;;;;;;;;;;
2024/04/23 19:22:16;;;;;;;10.5;7.9;;;;;;;;;;;;;
2024/04/23 19:24:42;;;;;;;11.8;8.6;;;;;;;;;;;;;
2024/04/23 19:27:06;;;;;;;10.6;8.1;;;;;;;;;;;;;
2024/04/23 19:29:37;;;;;;;10.7;8.2;;;;;;;;;;;;;
2024/04/23 19:31:56;;;;;;;12.5;8.3;;;;;;;;;;;;;
2024/04/23 19:34:21;;;;;;;12.1;9;;;;;;;;;;;;;
2024/04/23 19:36:47;;;;;;;10.6;8.2;;;;;;;;;;;;;
2024/04/23 19:39:12;;;;;;;11.9;8.3;;;;;;;;;;;;;
2024/04/23 19:41:37;;;;;;;12.8;9.4;;;;;;;;;;;;;
2024/04/23 19:44:02;;;;;;;11.6;8.1;;;;;;;;;;;;;
2024/04/23 19:46:28;;;;;;;13.3;8.9;;;;;;;;;;;;;
2024/04/23 19:48:55;;;;;;;12;8.6;;;;;;;;;;;;;
2024/04/23 19:51:20;;;;;;;10.8;8.3;;;;;;;;;;;;;
2024/04/23 19:53:47;;;;;;;12.7;9.1;;;;;;;;;;;;;
2024/04/23 19:56:11;;;;;;;12.8;9.3;;;;;;;;;;;;;
2024/04/23 20:00:58;;;;;;;13.3;10;;;;;;;;;;;;;
2024/04/23 20:03:24;;;;;;;13.3;9.7;;;;;;;;;;;;;
2024/04/23 20:05:48;;;;;;;14.4;9.8;;;;;;;;;;;;;
2024/04/23 20:08:14;;;;;;;13.1;9.8;;;;;;;;;;;;;
2024/04/23 20:10:39;;;;;;;16.2;10.2;;;;;;;;;;;;;
2024/04/23 20:13:04;;;;;;;13.8;10.4;;;;;;;;;;;;;
2024/04/23 20:15:29;;;;;;;15.6;11.1;;;;;;;;;;;;;
2024/04/23 20:17:54;;;;;;;15.5;10;;;;;;;;;;;;;
2024/04/23 20:20:19;;;;;;;13.1;9.8;;;;;;;;;;;;;
2024/04/23 20:22:44;;;;;;;15.4;10.3;;;;;;;;;;;;;
2024/04/23 20:25:10;;;;;;;14.2;10.3;;;;;;;;;;;;;
2024/04/23 20:27:35;;;;;;;13.3;10;;;;;;;;;;;;;
2024/04/23 20:30:00;;;;;;;14.4;10;;;;;;;;;;;;;
2024/04/23 20:32:25;;;;;;;14;10.3;;;;;;;;;;;;;
2024/04/23 20:34:50;;;;;;;14.4;10.8;;;;;;;;;;;;;
2024/04/23 20:37:15;;;;;;;15.4;10.5;;;;;;;;;;;;;
2024/04/23 20:39:40;;;;;;;15.8;10.4;;;;;;;;;;;;;
2024/04/23 20:42:05;;;;;;;15.3;10.7;;;;;;;;;;;;;
2024/04/23 20:44:30;;;;;;;17.6;11.8;;;;;;;;;;;;;
2024/04/23 20:46:55;;;;;;;17.1;11.5;;;;;;;;;;;;;
2024/04/23 20:49:20;;;;;;;16.8;11.2;;;;;;;;;;;;;
2024/04/23 20:51:46;;;;;;;16;11.3;;;;;;;;;;;;;
2024/04/23 20:54:11;;;;;;;17.3;11.7;;;;;;;;;;;;;
2024/04/23 20:56:36;;;;;;;16;11.3;;;;;;;;;;;;;
2024/04/23 20:59:01;;;;;;;16.6;11.1;;;;;;;;;;;;;
2024/04/23 21:01:26;;;;;;;14.4;10.3;;;;;;;;;;;;;
2024/04/23 21:03:51;;;;;;;15.7;10.7;;;;;;;;;;;;;
2024/04/23 21:06:16;;;;;;;13.6;9.8;;;;;;;;;;;;;
2024/04/23 21:08:41;;;;;;;14.7;10.4;;;;;;;;;;;;;
2024/04/23 21:11:06;;;;;;;16.1;11.1;;;;;;;;;;;;;
2024/04/23 21:13:31;;;;;;;15.2;10.9;;;;;;;;;;;;;
2024/04/23 21:15:56;;;;;;;16.9;10.7;;;;;;;;;;;;;
2024/04/23 21:18:22;;;;;;;15.9;10.9;;;;;;;;;;;;;
2024/04/23 21:20:47;;;;;;;18.2;11.7;;;;;;;;;;;;;
2024/04/23 21:23:11;;;;;;;17.6;12.1;;;;;;;;;;;;;
2024/04/23 21:25:37;;;;;;;17.5;12;;;;;;;;;;;;;
2024/04/23 21:28:02;;;;;;;18.2;12.4;;;;;;;;;;;;;
2024/04/23 21:30:29;;;;;;;19.7;13.2;;;;;;;;;;;;;
2024/04/23 21:32:53;;;;;;;19.1;12.6;;;;;;;;;;;;;
2024/04/23 21:35:17;;;;;;;19.5;13.3;;;;;;;;;;;;;
2024/04/23 21:37:43;;;;;;;19.8;13.7;;;;;;;;;;;;;
2024/04/23 21:40:08;;;;;;;18.9;13.1;;;;;;;;;;;;;
2024/04/23 21:42:33;;;;;;;20.3;13.7;;;;;;;;;;;;;
2024/04/23 21:44:58;;;;;;;21.3;13.8;;;;;;;;;;;;;
2024/04/23 21:47:23;;;;;;;22.5;14;;;;;;;;;;;;;
2024/04/23 21:49:48;;;;;;;22;14.2;;;;;;;;;;;;;
2024/04/23 21:52:13;;;;;;;22.4;14.5;;;;;;;;;;;;;
2024/04/23 21:54:44;;;;;;;22.3;14.4;;;;;;;;;;;;;
2024/04/23 21:57:04;;;;;;;23.4;15.1;;;;;;;;;;;;;
2024/04/23 21:59:29;;;;;;;22.8;14.8;;;;;;;;;;;;;
2024/04/23 22:01:54;;;;;;;20.9;14.6;;;;;;;;;;;;;
2024/04/23 22:04:19;;;;;;;21;14;;;;;;;;;;;;;
2024/04/23 22:06:44;;;;;;;23.8;14.9;;;;;;;;;;;;;
2024/04/23 22:09:09;;;;;;;22.7;14.8;;;;;;;;;;;;;
2024/04/23 22:11:35;;;;;;;21.1;14.3;;;;;;;;;;;;;
2024/04/23 22:14:00;;;;;;;22.3;14.5;;;;;;;;;;;;;
2024/04/23 22:16:25;;;;;;;21.6;14.2;;;;;;;;;;;;;
2024/04/23 22:18:50;;;;;;;22.2;13.8;;;;;;;;;;;;;
2024/04/23 22:21:15;;;;;;;21.3;14.7;;;;;;;;;;;;;
2024/04/23 22:23:40;;;;;;;20.8;14.6;;;;;;;;;;;;;
2024/04/23 22:26:05;;;;;;;20.3;14.1;;;;;;;;;;;;;
2024/04/23 22:28:30;;;;;;;19.4;13.1;;;;;;;;;;;;;
2024/04/23 22:30:55;;;;;;;21.7;14.4;;;;;;;;;;;;;
2024/04/23 22:33:20;;;;;;;20;14;;;;;;;;;;;;;
2024/04/23 22:35:45;;;;;;;18.8;13.5;;;;;;;;;;;;;
2024/04/23 22:38:11;;;;;;;22.2;14.1;;;;;;;;;;;;;
2024/04/23 22:40:35;;;;;;;20.7;13.6;;;;;;;;;;;;;
2024/04/23 22:43:01;;;;;;;20.5;13.7;;;;;;;;;;;;;
2024/04/23 22:45:27;;;;;;;20.8;14.3;;;;;;;;;;;;;
2024/04/23 22:47:51;;;;;;;22.6;14.4;;;;;;;;;;;;;
2024/04/23 22:50:16;;;;;;;20.6;13.6;;;;;;;;;;;;;
2024/04/23 22:52:41;;;;;;;21.2;13.9;;;;;;;;;;;;;
2024/04/23 22:55:06;;;;;;;20.6;13.5;;;;;;;;;;;;;
2024/04/23 22:57:31;;;;;;;19.3;13.3;;;;;;;;;;;;;
2024/04/23 22:59:57;;;;;;;20.1;13.3;;;;;;;;;;;;;
2024/04/23 23:02:22;;;;;;;20.5;14;;;;;;;;;;;;;
2024/04/23 23:04:47;;;;;;;21.7;14.8;;;;;;;;;;;;;